sensor_id;sensor_type;location;lat;lon;timestamp;P1;durP1;ratioP1;P2;durP2;ratioP2
79128;SDS011;68529;43.286;23.360;2023-12-29T00:01:18;19.27;;;13.93;;
79128;SDS011;68529;43.286;23.360;2023-12-29T00:03:43;14.47;;;10.17;;
79128;SDS011;68529;43.286;23.360;2023-12-29T00:06:09;12.93;;;10.13;;
79128;SDS011;68529;43.286;23.360;2023-12-29T00:08:36;10.70;;;9.37;;
79128;SDS011;68529;43.286;23.360;2023-12-29T00:11:02;14.73;;;9.90;;
79128;SDS011;68529;43.286;23.360;2023-12-29T00:13:27;13.27;;;9.67;;
79128;SDS011;68529;43.286;23.360;2023-12-29T00:15:53;12.10;;;9.90;;
79128;SDS011;68529;43.286;23.360;2023-12-29T00:18:19;12.60;;;9.43;;
79128;SDS011;68529;43.286;23.360;2023-12-29T00:20:44;11.63;;;9.17;;
79128;SDS011;68529;43.286;23.360;2023-12-29T00:23:10;12.83;;;10.80;;
79128;SDS011;68529;43.286;23.360;2023-12-29T00:25:38;13.13;;;10.37;;
79128;SDS011;68529;43.286;23.360;2023-12-29T00:28:04;12.13;;;9.87;;
79128;SDS011;68529;43.286;23.360;2023-12-29T00:30:30;13.60;;;9.33;;
79128;SDS011;68529;43.286;23.360;2023-12-29T00:32:56;16.63;;;12.03;;
79128;SDS011;68529;43.286;23.360;2023-12-29T00:35:21;19.93;;;12.97;;
79128;SDS011;68529;43.286;23.360;2023-12-29T00:37:47;15.30;;;11.43;;
79128;SDS011;68529;43.286;23.360;2023-12-29T00:40:12;16.97;;;10.40;;
79128;SDS011;68529;43.286;23.360;2023-12-29T00:42:37;11.83;;;9.03;;
79128;SDS011;68529;43.286;23.360;2023-12-29T00:45:03;11.03;;;9.20;;
79128;SDS011;68529;43.286;23.360;2023-12-29T00:47:30;11.43;;;8.43;;
79128;SDS011;68529;43.286;23.360;2023-12-29T00:49:55;11.67;;;8.97;;
79128;SDS011;68529;43.286;23.360;2023-12-29T00:52:21;10.27;;;8.00;;
79128;SDS011;68529;43.286;23.360;2023-12-29T00:54:46;11.53;;;8.30;;
79128;SDS011;68529;43.286;23.360;2023-12-29T00:57:12;11.00;;;7.60;;
79128;SDS011;68529;43.286;23.360;2023-12-29T00:59:37;9.47;;;7.40;;
79128;SDS011;68529;43.286;23.360;2023-12-29T01:02:06;11.90;;;8.57;;
79128;SDS011;68529;43.286;23.360;2023-12-29T01:04:31;10.23;;;8.33;;
79128;SDS011;68529;43.286;23.360;2023-12-29T01:06:57;9.93;;;7.40;;
79128;SDS011;68529;43.286;23.360;2023-12-29T01:09:22;8.53;;;7.20;;
79128;SDS011;68529;43.286;23.360;2023-12-29T01:11:47;10.73;;;7.23;;
79128;SDS011;68529;43.286;23.360;2023-12-29T01:14:13;9.17;;;7.07;;
79128;SDS011;68529;43.286;23.360;2023-12-29T01:16:39;11.00;;;7.53;;
79128;SDS011;68529;43.286;23.360;2023-12-29T01:19:05;9.43;;;7.30;;
79128;SDS011;68529;43.286;23.360;2023-12-29T01:21:30;8.50;;;7.33;;
79128;SDS011;68529;43.286;23.360;2023-12-29T01:23:59;8.23;;;7.00;;
79128;SDS011;68529;43.286;23.360;2023-12-29T01:26:26;8.83;;;6.50;;
79128;SDS011;68529;43.286;23.360;2023-12-29T01:28:51;8.47;;;6.87;;
79128;SDS011;68529;43.286;23.360;2023-12-29T01:31:17;8.87;;;6.87;;
79128;SDS011;68529;43.286;23.360;2023-12-29T01:33:43;9.10;;;7.17;;
79128;SDS011;68529;43.286;23.360;2023-12-29T01:36:08;7.87;;;6.63;;
79128;SDS011;68529;43.286;23.360;2023-12-29T01:38:33;11.00;;;6.77;;
79128;SDS011;68529;43.286;23.360;2023-12-29T01:40:59;7.13;;;6.00;;
79128;SDS011;68529;43.286;23.360;2023-12-29T01:43:24;8.07;;;5.90;;
79128;SDS011;68529;43.286;23.360;2023-12-29T01:45:50;7.97;;;5.63;;
79128;SDS011;68529;43.286;23.360;2023-12-29T01:48:15;8.67;;;6.03;;
79128;SDS011;68529;43.286;23.360;2023-12-29T01:50:40;8.17;;;6.10;;
79128;SDS011;68529;43.286;23.360;2023-12-29T01:53:06;8.27;;;6.57;;
79128;SDS011;68529;43.286;23.360;2023-12-29T01:55:32;7.57;;;6.13;;
79128;SDS011;68529;43.286;23.360;2023-12-29T01:57:58;8.67;;;6.87;;
79128;SDS011;68529;43.286;23.360;2023-12-29T02:00:24;7.00;;;6.30;;
79128;SDS011;68529;43.286;23.360;2023-12-29T02:02:50;8.80;;;6.60;;
79128;SDS011;68529;43.286;23.360;2023-12-29T02:05:16;7.70;;;6.30;;
79128;SDS011;68529;43.286;23.360;2023-12-29T02:07:45;8.33;;;6.27;;
79128;SDS011;68529;43.286;23.360;2023-12-29T02:10:11;9.53;;;7.03;;
79128;SDS011;68529;43.286;23.360;2023-12-29T02:12:40;7.00;;;6.03;;
79128;SDS011;68529;43.286;23.360;2023-12-29T02:15:06;9.07;;;6.40;;
79128;SDS011;68529;43.286;23.360;2023-12-29T02:18:06;9.63;;;6.30;;
79128;SDS011;68529;43.286;23.360;2023-12-29T02:20:30;7.87;;;5.43;;
79128;SDS011;68529;43.286;23.360;2023-12-29T02:22:56;7.17;;;5.27;;
79128;SDS011;68529;43.286;23.360;2023-12-29T02:25:21;7.47;;;6.10;;
79128;SDS011;68529;43.286;23.360;2023-12-29T02:30:43;8.13;;;5.93;;
79128;SDS011;68529;43.286;23.360;2023-12-29T02:33:16;7.50;;;6.17;;
79128;SDS011;68529;43.286;23.360;2023-12-29T02:35:46;9.93;;;5.90;;
79128;SDS011;68529;43.286;23.360;2023-12-29T02:38:14;8.27;;;5.87;;
79128;SDS011;68529;43.286;23.360;2023-12-29T02:40:40;8.83;;;5.67;;
79128;SDS011;68529;43.286;23.360;2023-12-29T02:43:05;8.47;;;6.57;;
79128;SDS011;68529;43.286;23.360;2023-12-29T02:45:31;8.27;;;5.80;;
79128;SDS011;68529;43.286;23.360;2023-12-29T02:47:56;7.37;;;5.67;;
79128;SDS011;68529;43.286;23.360;2023-12-29T02:50:22;6.33;;;5.50;;
79128;SDS011;68529;43.286;23.360;2023-12-29T02:52:47;6.93;;;5.23;;
79128;SDS011;68529;43.286;23.360;2023-12-29T02:55:13;7.70;;;5.23;;
79128;SDS011;68529;43.286;23.360;2023-12-29T02:57:38;22.20;;;15.77;;
79128;SDS011;68529;43.286;23.360;2023-12-29T03:00:04;16.00;;;11.20;;
79128;SDS011;68529;43.286;23.360;2023-12-29T03:02:30;11.87;;;7.37;;
79128;SDS011;68529;43.286;23.360;2023-12-29T03:04:56;9.77;;;6.57;;
79128;SDS011;68529;43.286;23.360;2023-12-29T03:07:21;11.33;;;8.87;;
79128;SDS011;68529;43.286;23.360;2023-12-29T03:09:47;10.10;;;8.53;;
79128;SDS011;68529;43.286;23.360;2023-12-29T03:12:12;10.17;;;6.67;;
79128;SDS011;68529;43.286;23.360;2023-12-29T03:14:38;9.67;;;7.47;;
79128;SDS011;68529;43.286;23.360;2023-12-29T03:17:03;7.07;;;5.73;;
79128;SDS011;68529;43.286;23.360;2023-12-29T03:19:29;11.10;;;7.93;;
79128;SDS011;68529;43.286;23.360;2023-12-29T03:21:54;12.47;;;8.47;;
79128;SDS011;68529;43.286;23.360;2023-12-29T03:24:19;11.37;;;8.30;;
79128;SDS011;68529;43.286;23.360;2023-12-29T03:26:45;8.37;;;6.80;;
79128;SDS011;68529;43.286;23.360;2023-12-29T03:29:11;6.23;;;5.57;;
79128;SDS011;68529;43.286;23.360;2023-12-29T03:31:36;7.80;;;6.17;;
79128;SDS011;68529;43.286;23.360;2023-12-29T03:34:02;8.73;;;7.80;;
79128;SDS011;68529;43.286;23.360;2023-12-29T03:36:27;8.57;;;6.50;;
79128;SDS011;68529;43.286;23.360;2023-12-29T03:38:52;7.60;;;5.90;;
79128;SDS011;68529;43.286;23.360;2023-12-29T03:41:18;7.27;;;5.80;;
79128;SDS011;68529;43.286;23.360;2023-12-29T03:43:44;9.77;;;6.07;;
79128;SDS011;68529;43.286;23.360;2023-12-29T03:46:19;7.13;;;5.13;;
79128;SDS011;68529;43.286;23.360;2023-12-29T03:48:45;6.33;;;5.37;;
79128;SDS011;68529;43.286;23.360;2023-12-29T03:51:11;9.87;;;5.80;;
79128;SDS011;68529;43.286;23.360;2023-12-29T03:53:36;7.47;;;5.73;;
79128;SDS011;68529;43.286;23.360;2023-12-29T03:56:08;6.67;;;5.53;;
79128;SDS011;68529;43.286;23.360;2023-12-29T03:58:37;6.93;;;5.07;;
79128;SDS011;68529;43.286;23.360;2023-12-29T04:01:03;5.80;;;5.20;;
79128;SDS011;68529;43.286;23.360;2023-12-29T04:03:28;8.50;;;7.23;;
79128;SDS011;68529;43.286;23.360;2023-12-29T04:05:54;8.00;;;6.13;;
79128;SDS011;68529;43.286;23.360;2023-12-29T04:08:19;7.43;;;5.57;;
79128;SDS011;68529;43.286;23.360;2023-12-29T04:10:45;7.07;;;5.43;;
79128;SDS011;68529;43.286;23.360;2023-12-29T04:13:10;7.10;;;5.37;;
79128;SDS011;68529;43.286;23.360;2023-12-29T04:15:36;6.57;;;5.10;;
79128;SDS011;68529;43.286;23.360;2023-12-29T04:18:01;6.97;;;5.80;;
79128;SDS011;68529;43.286;23.360;2023-12-29T04:20:26;8.67;;;5.77;;
79128;SDS011;68529;43.286;23.360;2023-12-29T04:22:52;10.47;;;6.80;;
79128;SDS011;68529;43.286;23.360;2023-12-29T04:25:17;10.13;;;5.47;;
79128;SDS011;68529;43.286;23.360;2023-12-29T04:27:43;10.70;;;5.90;;
79128;SDS011;68529;43.286;23.360;2023-12-29T04:30:08;7.30;;;5.47;;
79128;SDS011;68529;43.286;23.360;2023-12-29T04:32:34;9.37;;;5.53;;
79128;SDS011;68529;43.286;23.360;2023-12-29T04:34:59;5.70;;;4.97;;
79128;SDS011;68529;43.286;23.360;2023-12-29T04:37:25;6.87;;;5.33;;
79128;SDS011;68529;43.286;23.360;2023-12-29T04:39:50;6.53;;;5.43;;
79128;SDS011;68529;43.286;23.360;2023-12-29T04:42:15;5.80;;;4.97;;
79128;SDS011;68529;43.286;23.360;2023-12-29T04:44:42;6.93;;;5.40;;
79128;SDS011;68529;43.286;23.360;2023-12-29T04:47:08;7.53;;;5.07;;
79128;SDS011;68529;43.286;23.360;2023-12-29T04:49:33;11.33;;;5.77;;
79128;SDS011;68529;43.286;23.360;2023-12-29T04:51:59;8.70;;;5.83;;
79128;SDS011;68529;43.286;23.360;2023-12-29T04:54:24;7.57;;;5.60;;
79128;SDS011;68529;43.286;23.360;2023-12-29T04:56:50;6.53;;;5.40;;
79128;SDS011;68529;43.286;23.360;2023-12-29T04:59:15;7.47;;;5.53;;
79128;SDS011;68529;43.286;23.360;2023-12-29T05:01:41;7.33;;;5.53;;
79128;SDS011;68529;43.286;23.360;2023-12-29T05:04:06;6.53;;;5.40;;
79128;SDS011;68529;43.286;23.360;2023-12-29T05:06:31;8.37;;;6.37;;
79128;SDS011;68529;43.286;23.360;2023-12-29T05:08:57;8.27;;;6.17;;
79128;SDS011;68529;43.286;23.360;2023-12-29T05:11:22;8.70;;;6.40;;
79128;SDS011;68529;43.286;23.360;2023-12-29T05:13:47;6.97;;;5.70;;
79128;SDS011;68529;43.286;23.360;2023-12-29T05:16:13;7.53;;;5.77;;
79128;SDS011;68529;43.286;23.360;2023-12-29T05:18:38;7.33;;;5.67;;
79128;SDS011;68529;43.286;23.360;2023-12-29T05:21:04;5.70;;;5.10;;
79128;SDS011;68529;43.286;23.360;2023-12-29T05:23:29;7.20;;;5.27;;
79128;SDS011;68529;43.286;23.360;2023-12-29T05:25:54;7.17;;;5.53;;
79128;SDS011;68529;43.286;23.360;2023-12-29T05:28:20;7.17;;;5.43;;
79128;SDS011;68529;43.286;23.360;2023-12-29T05:30:45;7.40;;;5.57;;
79128;SDS011;68529;43.286;23.360;2023-12-29T05:33:10;7.47;;;5.60;;
79128;SDS011;68529;43.286;23.360;2023-12-29T05:35:36;7.40;;;5.93;;
79128;SDS011;68529;43.286;23.360;2023-12-29T05:38:01;8.43;;;5.87;;
79128;SDS011;68529;43.286;23.360;2023-12-29T05:40:27;9.70;;;6.87;;
79128;SDS011;68529;43.286;23.360;2023-12-29T05:42:53;9.53;;;7.57;;
79128;SDS011;68529;43.286;23.360;2023-12-29T05:45:19;8.57;;;6.20;;
79128;SDS011;68529;43.286;23.360;2023-12-29T05:47:44;8.33;;;6.27;;
79128;SDS011;68529;43.286;23.360;2023-12-29T05:50:09;6.90;;;5.93;;
79128;SDS011;68529;43.286;23.360;2023-12-29T05:52:35;8.53;;;6.13;;
79128;SDS011;68529;43.286;23.360;2023-12-29T05:55:00;8.20;;;6.20;;
79128;SDS011;68529;43.286;23.360;2023-12-29T05:57:25;7.23;;;5.87;;
79128;SDS011;68529;43.286;23.360;2023-12-29T05:59:51;8.27;;;6.10;;
79128;SDS011;68529;43.286;23.360;2023-12-29T06:02:17;8.03;;;6.23;;
79128;SDS011;68529;43.286;23.360;2023-12-29T06:04:42;9.50;;;6.10;;
79128;SDS011;68529;43.286;23.360;2023-12-29T06:07:07;10.10;;;6.73;;
79128;SDS011;68529;43.286;23.360;2023-12-29T06:09:33;13.70;;;8.20;;
79128;SDS011;68529;43.286;23.360;2023-12-29T06:11:58;13.07;;;8.57;;
79128;SDS011;68529;43.286;23.360;2023-12-29T06:14:24;12.93;;;8.20;;
79128;SDS011;68529;43.286;23.360;2023-12-29T06:16:49;13.30;;;7.83;;
79128;SDS011;68529;43.286;23.360;2023-12-29T06:19:14;12.77;;;7.90;;
79128;SDS011;68529;43.286;23.360;2023-12-29T06:21:43;11.63;;;8.50;;
79128;SDS011;68529;43.286;23.360;2023-12-29T06:24:12;8.67;;;6.17;;
79128;SDS011;68529;43.286;23.360;2023-12-29T06:26:37;10.00;;;7.50;;
79128;SDS011;68529;43.286;23.360;2023-12-29T06:29:07;8.40;;;6.87;;
79128;SDS011;68529;43.286;23.360;2023-12-29T06:31:33;10.17;;;7.43;;
79128;SDS011;68529;43.286;23.360;2023-12-29T06:33:59;9.50;;;6.40;;
79128;SDS011;68529;43.286;23.360;2023-12-29T06:36:25;8.70;;;6.73;;
79128;SDS011;68529;43.286;23.360;2023-12-29T06:38:51;8.63;;;6.60;;
79128;SDS011;68529;43.286;23.360;2023-12-29T06:41:17;8.43;;;6.40;;
79128;SDS011;68529;43.286;23.360;2023-12-29T06:43:44;8.73;;;6.20;;
79128;SDS011;68529;43.286;23.360;2023-12-29T06:46:09;9.23;;;7.00;;
79128;SDS011;68529;43.286;23.360;2023-12-29T06:48:35;8.20;;;5.60;;
79128;SDS011;68529;43.286;23.360;2023-12-29T06:51:01;6.47;;;5.70;;
79128;SDS011;68529;43.286;23.360;2023-12-29T06:53:26;8.67;;;6.13;;
79128;SDS011;68529;43.286;23.360;2023-12-29T06:55:52;8.13;;;5.67;;
79128;SDS011;68529;43.286;23.360;2023-12-29T06:58:17;10.93;;;6.03;;
79128;SDS011;68529;43.286;23.360;2023-12-29T07:00:43;7.83;;;5.50;;
79128;SDS011;68529;43.286;23.360;2023-12-29T07:03:08;7.10;;;5.27;;
79128;SDS011;68529;43.286;23.360;2023-12-29T07:05:34;6.63;;;5.67;;
79128;SDS011;68529;43.286;23.360;2023-12-29T07:07:59;8.23;;;5.77;;
79128;SDS011;68529;43.286;23.360;2023-12-29T07:10:24;7.13;;;6.03;;
79128;SDS011;68529;43.286;23.360;2023-12-29T07:12:50;7.50;;;5.73;;
79128;SDS011;68529;43.286;23.360;2023-12-29T07:15:15;7.27;;;5.33;;
79128;SDS011;68529;43.286;23.360;2023-12-29T07:17:41;7.77;;;5.87;;
79128;SDS011;68529;43.286;23.360;2023-12-29T07:20:06;10.27;;;6.00;;
79128;SDS011;68529;43.286;23.360;2023-12-29T07:22:32;7.67;;;5.80;;
79128;SDS011;68529;43.286;23.360;2023-12-29T07:24:58;6.57;;;5.07;;
79128;SDS011;68529;43.286;23.360;2023-12-29T07:27:23;7.33;;;5.53;;
79128;SDS011;68529;43.286;23.360;2023-12-29T07:29:48;7.03;;;5.50;;
79128;SDS011;68529;43.286;23.360;2023-12-29T07:32:14;6.70;;;5.40;;
79128;SDS011;68529;43.286;23.360;2023-12-29T07:34:39;7.23;;;5.50;;
79128;SDS011;68529;43.286;23.360;2023-12-29T07:37:04;6.77;;;6.07;;
79128;SDS011;68529;43.286;23.360;2023-12-29T07:39:30;8.13;;;6.30;;
79128;SDS011;68529;43.286;23.360;2023-12-29T07:41:55;11.03;;;8.57;;
79128;SDS011;68529;43.286;23.360;2023-12-29T07:44:21;9.53;;;7.30;;
79128;SDS011;68529;43.286;23.360;2023-12-29T07:46:46;10.53;;;8.17;;
79128;SDS011;68529;43.286;23.360;2023-12-29T07:49:11;21.60;;;13.00;;
79128;SDS011;68529;43.286;23.360;2023-12-29T07:51:40;23.37;;;13.90;;
79128;SDS011;68529;43.286;23.360;2023-12-29T07:54:07;22.53;;;14.20;;
79128;SDS011;68529;43.286;23.360;2023-12-29T07:56:33;24.93;;;15.63;;
79128;SDS011;68529;43.286;23.360;2023-12-29T07:58:58;20.17;;;13.73;;
79128;SDS011;68529;43.286;23.360;2023-12-29T08:01:23;20.57;;;14.20;;
79128;SDS011;68529;43.286;23.360;2023-12-29T08:03:49;17.83;;;11.40;;
79128;SDS011;68529;43.286;23.360;2023-12-29T08:06:14;15.77;;;11.27;;
79128;SDS011;68529;43.286;23.360;2023-12-29T08:08:40;14.43;;;11.90;;
79128;SDS011;68529;43.286;23.360;2023-12-29T08:11:06;14.53;;;10.63;;
79128;SDS011;68529;43.286;23.360;2023-12-29T08:13:40;12.57;;;11.20;;
79128;SDS011;68529;43.286;23.360;2023-12-29T08:16:05;15.37;;;11.03;;
79128;SDS011;68529;43.286;23.360;2023-12-29T08:18:32;13.83;;;9.60;;
79128;SDS011;68529;43.286;23.360;2023-12-29T08:20:57;10.03;;;8.90;;
79128;SDS011;68529;43.286;23.360;2023-12-29T08:23:24;10.27;;;8.83;;
79128;SDS011;68529;43.286;23.360;2023-12-29T08:25:51;9.93;;;8.27;;
79128;SDS011;68529;43.286;23.360;2023-12-29T08:28:17;9.97;;;7.37;;
79128;SDS011;68529;43.286;23.360;2023-12-29T08:30:42;8.60;;;7.53;;
79128;SDS011;68529;43.286;23.360;2023-12-29T08:33:10;9.87;;;8.60;;
79128;SDS011;68529;43.286;23.360;2023-12-29T08:35:37;8.50;;;7.60;;
79128;SDS011;68529;43.286;23.360;2023-12-29T08:38:03;6.30;;;5.67;;
79128;SDS011;68529;43.286;23.360;2023-12-29T08:40:28;16.90;;;11.67;;
79128;SDS011;68529;43.286;23.360;2023-12-29T08:42:54;12.13;;;9.90;;
79128;SDS011;68529;43.286;23.360;2023-12-29T08:45:20;7.73;;;6.73;;
79128;SDS011;68529;43.286;23.360;2023-12-29T08:47:45;9.27;;;6.80;;
79128;SDS011;68529;43.286;23.360;2023-12-29T08:50:10;7.57;;;6.83;;
79128;SDS011;68529;43.286;23.360;2023-12-29T08:52:36;7.60;;;6.50;;
79128;SDS011;68529;43.286;23.360;2023-12-29T08:55:01;8.73;;;6.50;;
79128;SDS011;68529;43.286;23.360;2023-12-29T08:57:27;6.87;;;6.10;;
79128;SDS011;68529;43.286;23.360;2023-12-29T08:59:52;7.63;;;6.40;;
79128;SDS011;68529;43.286;23.360;2023-12-29T09:02:18;7.07;;;6.47;;
79128;SDS011;68529;43.286;23.360;2023-12-29T09:04:43;6.23;;;5.40;;
79128;SDS011;68529;43.286;23.360;2023-12-29T09:07:09;6.83;;;6.13;;
79128;SDS011;68529;43.286;23.360;2023-12-29T09:09:34;6.10;;;5.50;;
79128;SDS011;68529;43.286;23.360;2023-12-29T09:11:59;8.33;;;7.53;;
79128;SDS011;68529;43.286;23.360;2023-12-29T09:14:25;8.37;;;7.53;;
79128;SDS011;68529;43.286;23.360;2023-12-29T09:16:50;8.27;;;7.47;;
79128;SDS011;68529;43.286;23.360;2023-12-29T09:19:16;7.00;;;6.30;;
79128;SDS011;68529;43.286;23.360;2023-12-29T09:21:41;7.70;;;6.20;;
79128;SDS011;68529;43.286;23.360;2023-12-29T09:24:06;8.30;;;7.33;;
79128;SDS011;68529;43.286;23.360;2023-12-29T09:26:32;11.50;;;9.30;;
79128;SDS011;68529;43.286;23.360;2023-12-29T09:28:58;9.60;;;8.60;;
79128;SDS011;68529;43.286;23.360;2023-12-29T09:31:24;9.00;;;7.90;;
79128;SDS011;68529;43.286;23.360;2023-12-29T09:33:49;8.60;;;7.10;;
79128;SDS011;68529;43.286;23.360;2023-12-29T09:36:14;11.20;;;9.77;;
79128;SDS011;68529;43.286;23.360;2023-12-29T09:38:40;6.40;;;5.80;;
79128;SDS011;68529;43.286;23.360;2023-12-29T09:41:09;8.43;;;6.50;;
79128;SDS011;68529;43.286;23.360;2023-12-29T09:43:38;23.23;;;9.20;;
79128;SDS011;68529;43.286;23.360;2023-12-29T09:46:05;7.43;;;6.73;;
79128;SDS011;68529;43.286;23.360;2023-12-29T09:48:33;9.13;;;7.50;;
79128;SDS011;68529;43.286;23.360;2023-12-29T09:51:01;7.93;;;7.10;;
79128;SDS011;68529;43.286;23.360;2023-12-29T09:53:27;10.77;;;9.67;;
79128;SDS011;68529;43.286;23.360;2023-12-29T09:55:53;13.53;;;10.40;;
79128;SDS011;68529;43.286;23.360;2023-12-29T09:58:21;9.17;;;8.00;;
79128;SDS011;68529;43.286;23.360;2023-12-29T10:00:48;9.47;;;7.10;;
79128;SDS011;68529;43.286;23.360;2023-12-29T10:03:14;10.23;;;6.93;;
79128;SDS011;68529;43.286;23.360;2023-12-29T10:05:39;9.05;;;6.38;;
79128;SDS011;68529;43.286;23.360;2023-12-29T10:08:05;7.80;;;6.28;;
79128;SDS011;68529;43.286;23.360;2023-12-29T10:10:33;6.65;;;5.95;;
79128;SDS011;68529;43.286;23.360;2023-12-29T10:13:00;7.80;;;5.88;;
79128;SDS011;68529;43.286;23.360;2023-12-29T10:15:31;8.65;;;6.70;;
79128;SDS011;68529;43.286;23.360;2023-12-29T10:23:22;10.65;;;7.63;;
79128;SDS011;68529;43.286;23.360;2023-12-29T10:25:53;11.30;;;8.95;;
79128;SDS011;68529;43.286;23.360;2023-12-29T10:28:19;10.38;;;8.90;;
79128;SDS011;68529;43.286;23.360;2023-12-29T10:30:46;9.80;;;7.50;;
79128;SDS011;68529;43.286;23.360;2023-12-29T10:33:13;9.05;;;7.10;;
79128;SDS011;68529;43.286;23.360;2023-12-29T10:35:56;8.80;;;6.30;;
79128;SDS011;68529;43.286;23.360;2023-12-29T10:38:23;5.28;;;4.78;;
79128;SDS011;68529;43.286;23.360;2023-12-29T10:40:48;7.18;;;6.45;;
79128;SDS011;68529;43.286;23.360;2023-12-29T10:43:13;8.43;;;6.75;;
79128;SDS011;68529;43.286;23.360;2023-12-29T10:45:47;8.05;;;5.57;;
79128;SDS011;68529;43.286;23.360;2023-12-29T10:48:12;9.05;;;6.30;;
79128;SDS011;68529;43.286;23.360;2023-12-29T10:50:47;6.25;;;5.13;;
79128;SDS011;68529;43.286;23.360;2023-12-29T10:53:14;5.97;;;5.13;;
79128;SDS011;68529;43.286;23.360;2023-12-29T10:55:41;9.32;;;5.70;;
79128;SDS011;68529;43.286;23.360;2023-12-29T10:58:07;5.97;;;5.38;;
79128;SDS011;68529;43.286;23.360;2023-12-29T11:00:32;6.88;;;5.75;;
79128;SDS011;68529;43.286;23.360;2023-12-29T11:02:57;9.35;;;6.45;;
79128;SDS011;68529;43.286;23.360;2023-12-29T11:05:26;7.45;;;5.93;;
79128;SDS011;68529;43.286;23.360;2023-12-29T11:07:53;8.65;;;6.32;;
79128;SDS011;68529;43.286;23.360;2023-12-29T11:10:20;8.50;;;6.55;;
79128;SDS011;68529;43.286;23.360;2023-12-29T11:12:47;7.13;;;6.28;;
79128;SDS011;68529;43.286;23.360;2023-12-29T11:15:13;7.65;;;6.13;;
79128;SDS011;68529;43.286;23.360;2023-12-29T11:17:41;6.10;;;5.38;;
79128;SDS011;68529;43.286;23.360;2023-12-29T11:20:14;8.77;;;6.43;;
79128;SDS011;68529;43.286;23.360;2023-12-29T11:22:41;8.00;;;6.03;;
79128;SDS011;68529;43.286;23.360;2023-12-29T11:25:08;12.40;;;6.75;;
79128;SDS011;68529;43.286;23.360;2023-12-29T11:27:33;7.80;;;6.70;;
79128;SDS011;68529;43.286;23.360;2023-12-29T11:30:00;7.60;;;6.20;;
79128;SDS011;68529;43.286;23.360;2023-12-29T11:32:32;7.68;;;5.97;;
79128;SDS011;68529;43.286;23.360;2023-12-29T11:35:51;6.30;;;5.53;;
79128;SDS011;68529;43.286;23.360;2023-12-29T11:43:56;32.90;;;8.05;;
79128;SDS011;68529;43.286;23.360;2023-12-29T11:46:35;39.70;;;7.75;;
79128;SDS011;68529;43.286;23.360;2023-12-29T11:49:02;10.93;;;6.95;;
79128;SDS011;68529;43.286;23.360;2023-12-29T11:51:29;12.95;;;8.27;;
79128;SDS011;68529;43.286;23.360;2023-12-29T11:54:00;8.40;;;5.75;;
79128;SDS011;68529;43.286;23.360;2023-12-29T11:59:22;17.25;;;5.63;;
79128;SDS011;68529;43.286;23.360;2023-12-29T12:01:57;13.88;;;5.53;;
79128;SDS011;68529;43.286;23.360;2023-12-29T12:07:08;32.75;;;7.80;;
79128;SDS011;68529;43.286;23.360;2023-12-29T12:09:37;16.35;;;5.72;;
79128;SDS011;68529;43.286;23.360;2023-12-29T12:12:04;18.27;;;7.22;;
79128;SDS011;68529;43.286;23.360;2023-12-29T12:14:51;32.55;;;7.40;;
79128;SDS011;68529;43.286;23.360;2023-12-29T12:17:31;13.38;;;5.28;;
79128;SDS011;68529;43.286;23.360;2023-12-29T12:19:59;7.47;;;4.78;;
79128;SDS011;68529;43.286;23.360;2023-12-29T12:22:29;10.88;;;5.30;;
79128;SDS011;68529;43.286;23.360;2023-12-29T12:24:59;12.05;;;5.63;;
79128;SDS011;68529;43.286;23.360;2023-12-29T12:27:26;9.75;;;5.53;;
79128;SDS011;68529;43.286;23.360;2023-12-29T12:29:53;11.23;;;5.55;;
79128;SDS011;68529;43.286;23.360;2023-12-29T12:32:26;11.68;;;5.57;;
79128;SDS011;68529;43.286;23.360;2023-12-29T12:34:52;16.60;;;8.50;;
79128;SDS011;68529;43.286;23.360;2023-12-29T12:37:18;10.32;;;6.13;;
79128;SDS011;68529;43.286;23.360;2023-12-29T12:39:45;7.13;;;5.18;;
79128;SDS011;68529;43.286;23.360;2023-12-29T12:42:10;9.70;;;6.10;;
79128;SDS011;68529;43.286;23.360;2023-12-29T12:44:39;11.68;;;7.18;;
79128;SDS011;68529;43.286;23.360;2023-12-29T12:47:07;19.38;;;7.75;;
79128;SDS011;68529;43.286;23.360;2023-12-29T12:49:34;9.98;;;5.80;;
79128;SDS011;68529;43.286;23.360;2023-12-29T12:52:00;19.50;;;8.43;;
79128;SDS011;68529;43.286;23.360;2023-12-29T12:54:27;6.22;;;4.72;;
79128;SDS011;68529;43.286;23.360;2023-12-29T12:56:53;5.65;;;4.95;;
79128;SDS011;68529;43.286;23.360;2023-12-29T12:59:18;10.23;;;4.60;;
79128;SDS011;68529;43.286;23.360;2023-12-29T13:01:44;8.55;;;5.47;;
79128;SDS011;68529;43.286;23.360;2023-12-29T13:04:10;8.65;;;5.90;;
79128;SDS011;68529;43.286;23.360;2023-12-29T13:06:40;6.65;;;5.95;;
79128;SDS011;68529;43.286;23.360;2023-12-29T13:09:08;6.30;;;4.60;;
79128;SDS011;68529;43.286;23.360;2023-12-29T13:11:36;10.65;;;7.57;;
79128;SDS011;68529;43.286;23.360;2023-12-29T13:14:02;27.30;;;16.63;;
79128;SDS011;68529;43.286;23.360;2023-12-29T13:16:36;7.20;;;5.40;;
79128;SDS011;68529;43.286;23.360;2023-12-29T13:19:15;9.63;;;5.75;;
79128;SDS011;68529;43.286;23.360;2023-12-29T13:21:42;13.73;;;9.00;;
79128;SDS011;68529;43.286;23.360;2023-12-29T13:24:07;15.13;;;11.03;;
79128;SDS011;68529;43.286;23.360;2023-12-29T13:26:33;16.83;;;11.27;;
79128;SDS011;68529;43.286;23.360;2023-12-29T13:28:58;16.60;;;10.98;;
79128;SDS011;68529;43.286;23.360;2023-12-29T13:31:24;20.10;;;12.27;;
79128;SDS011;68529;43.286;23.360;2023-12-29T13:34:00;15.75;;;8.10;;
79128;SDS011;68529;43.286;23.360;2023-12-29T13:39:40;10.00;;;5.93;;
79128;SDS011;68529;43.286;23.360;2023-12-29T13:42:10;9.02;;;6.10;;
79128;SDS011;68529;43.286;23.360;2023-12-29T13:44:40;8.57;;;6.20;;
79128;SDS011;68529;43.286;23.360;2023-12-29T13:47:07;8.17;;;6.20;;
79128;SDS011;68529;43.286;23.360;2023-12-29T13:49:34;9.67;;;7.33;;
79128;SDS011;68529;43.286;23.360;2023-12-29T13:52:02;8.13;;;6.70;;
79128;SDS011;68529;43.286;23.360;2023-12-29T13:54:28;10.23;;;6.70;;
79128;SDS011;68529;43.286;23.360;2023-12-29T13:56:54;9.00;;;6.80;;
79128;SDS011;68529;43.286;23.360;2023-12-29T13:59:29;7.33;;;5.63;;
79128;SDS011;68529;43.286;23.360;2023-12-29T14:01:58;12.60;;;10.70;;
79128;SDS011;68529;43.286;23.360;2023-12-29T14:04:24;14.30;;;10.60;;
79128;SDS011;68529;43.286;23.360;2023-12-29T14:06:51;9.00;;;8.10;;
79128;SDS011;68529;43.286;23.360;2023-12-29T14:09:20;13.57;;;9.17;;
79128;SDS011;68529;43.286;23.360;2023-12-29T14:11:48;11.57;;;9.33;;
79128;SDS011;68529;43.286;23.360;2023-12-29T14:14:21;13.37;;;10.27;;
79128;SDS011;68529;43.286;23.360;2023-12-29T14:16:47;13.23;;;9.60;;
79128;SDS011;68529;43.286;23.360;2023-12-29T14:19:13;15.70;;;10.83;;
79128;SDS011;68529;43.286;23.360;2023-12-29T14:21:38;19.70;;;12.87;;
79128;SDS011;68529;43.286;23.360;2023-12-29T14:24:13;25.43;;;16.30;;
79128;SDS011;68529;43.286;23.360;2023-12-29T14:26:53;18.23;;;12.17;;
79128;SDS011;68529;43.286;23.360;2023-12-29T14:29:18;61.37;;;44.00;;
79128;SDS011;68529;43.286;23.360;2023-12-29T14:31:47;56.73;;;41.17;;
79128;SDS011;68529;43.286;23.360;2023-12-29T14:34:13;35.23;;;25.93;;
79128;SDS011;68529;43.286;23.360;2023-12-29T14:36:40;31.73;;;22.57;;
79128;SDS011;68529;43.286;23.360;2023-12-29T14:39:06;27.17;;;18.70;;
79128;SDS011;68529;43.286;23.360;2023-12-29T14:41:32;19.80;;;14.20;;
79128;SDS011;68529;43.286;23.360;2023-12-29T14:43:58;24.53;;;13.80;;
79128;SDS011;68529;43.286;23.360;2023-12-29T14:46:24;15.80;;;11.23;;
79128;SDS011;68529;43.286;23.360;2023-12-29T14:48:50;23.83;;;12.20;;